sensor_id;sensor_type;location;lat;lon;timestamp;P1;durP1;ratioP1;P2;durP2;ratioP2
68995;SDS011;56056;48.990;12.146;2023-08-06T00:02:23;1586.72;;;999.90;;
68995;SDS011;56056;48.990;12.146;2023-08-06T00:04:51;1650.68;;;999.90;;
68995;SDS011;56056;48.990;12.146;2023-08-06T00:07:17;1646.25;;;999.90;;
68995;SDS011;56056;48.990;12.146;2023-08-06T00:09:43;1611.00;;;999.90;;
68995;SDS011;56056;48.990;12.146;2023-08-06T00:12:09;1609.65;;;999.90;;
68995;SDS011;56056;48.990;12.146;2023-08-06T00:14:35;1635.63;;;999.90;;
68995;SDS011;56056;48.990;12.146;2023-08-06T00:17:01;1696.68;;;999.90;;
68995;SDS011;56056;48.990;12.146;2023-08-06T00:19:27;1576.35;;;999.90;;
68995;SDS011;56056;48.990;12.146;2023-08-06T00:21:54;1566.03;;;999.90;;
68995;SDS011;56056;48.990;12.146;2023-08-06T00:24:20;1512.65;;;999.90;;
68995;SDS011;56056;48.990;12.146;2023-08-06T00:26:46;1589.68;;;999.90;;
68995;SDS011;56056;48.990;12.146;2023-08-06T00:29:11;1656.15;;;999.90;;
68995;SDS011;56056;48.990;12.146;2023-08-06T00:31:37;1629.20;;;999.90;;
68995;SDS011;56056;48.990;12.146;2023-08-06T00:34:03;1594.05;;;999.90;;
68995;SDS011;56056;48.990;12.146;2023-08-06T00:36:29;1566.03;;;999.90;;
68995;SDS011;56056;48.990;12.146;2023-08-06T00:38:56;1539.40;;;999.90;;
68995;SDS011;56056;48.990;12.146;2023-08-06T00:41:22;1565.15;;;999.90;;
68995;SDS011;56056;48.990;12.146;2023-08-06T00:43:48;1567.88;;;999.90;;
68995;SDS011;56056;48.990;12.146;2023-08-06T00:46:14;1585.32;;;999.90;;
68995;SDS011;56056;48.990;12.146;2023-08-06T00:48:40;1526.82;;;999.90;;
68995;SDS011;56056;48.990;12.146;2023-08-06T00:51:06;1653.25;;;999.90;;
68995;SDS011;56056;48.990;12.146;2023-08-06T00:53:34;1757.47;;;999.90;;
68995;SDS011;56056;48.990;12.146;2023-08-06T00:56:01;1897.85;;;999.90;;
68995;SDS011;56056;48.990;12.146;2023-08-06T00:58:27;1978.82;;;999.90;;
68995;SDS011;56056;48.990;12.146;2023-08-06T01:00:53;1964.28;;;999.90;;
68995;SDS011;56056;48.990;12.146;2023-08-06T01:03:19;1972.70;;;999.90;;
68995;SDS011;56056;48.990;12.146;2023-08-06T01:05:45;1999.90;;;999.90;;
68995;SDS011;56056;48.990;12.146;2023-08-06T01:08:17;1999.90;;;999.90;;
68995;SDS011;56056;48.990;12.146;2023-08-06T01:10:59;1957.38;;;999.90;;
68995;SDS011;56056;48.990;12.146;2023-08-06T01:13:45;1999.90;;;999.90;;
68995;SDS011;56056;48.990;12.146;2023-08-06T01:16:14;1999.90;;;999.90;;
68995;SDS011;56056;48.990;12.146;2023-08-06T01:18:42;1999.90;;;999.90;;
68995;SDS011;56056;48.990;12.146;2023-08-06T01:21:12;1999.90;;;999.90;;
68995;SDS011;56056;48.990;12.146;2023-08-06T01:23:38;1999.90;;;999.90;;
68995;SDS011;56056;48.990;12.146;2023-08-06T01:26:05;1982.30;;;999.90;;
68995;SDS011;56056;48.990;12.146;2023-08-06T01:28:40;1977.20;;;999.90;;
68995;SDS011;56056;48.990;12.146;2023-08-06T01:31:15;1971.47;;;999.90;;
68995;SDS011;56056;48.990;12.146;2023-08-06T01:33:46;1935.78;;;999.90;;
68995;SDS011;56056;48.990;12.146;2023-08-06T01:36:16;1925.93;;;999.90;;
68995;SDS011;56056;48.990;12.146;2023-08-06T01:38:43;1883.80;;;999.90;;
68995;SDS011;56056;48.990;12.146;2023-08-06T01:41:09;1998.38;;;999.90;;
68995;SDS011;56056;48.990;12.146;2023-08-06T01:43:35;1990.85;;;999.90;;
68995;SDS011;56056;48.990;12.146;2023-08-06T01:46:01;1880.25;;;999.90;;
68995;SDS011;56056;48.990;12.146;2023-08-06T01:48:27;1977.70;;;999.90;;
68995;SDS011;56056;48.990;12.146;2023-08-06T01:50:53;1882.82;;;999.90;;
68995;SDS011;56056;48.990;12.146;2023-08-06T01:53:20;1329.35;;;999.53;;
68995;SDS011;56056;48.990;12.146;2023-08-06T01:55:47;1581.32;;;999.90;;
68995;SDS011;56056;48.990;12.146;2023-08-06T01:58:13;1647.18;;;999.90;;
68995;SDS011;56056;48.990;12.146;2023-08-06T02:00:40;1648.32;;;999.90;;
68995;SDS011;56056;48.990;12.146;2023-08-06T02:03:05;1767.65;;;999.90;;
68995;SDS011;56056;48.990;12.146;2023-08-06T02:05:31;1724.53;;;999.90;;
68995;SDS011;56056;48.990;12.146;2023-08-06T02:07:57;1527.82;;;999.90;;
68995;SDS011;56056;48.990;12.146;2023-08-06T02:10:24;1404.82;;;999.90;;
68995;SDS011;56056;48.990;12.146;2023-08-06T02:12:50;1479.97;;;999.90;;
68995;SDS011;56056;48.990;12.146;2023-08-06T02:15:16;1710.57;;;999.90;;
68995;SDS011;56056;48.990;12.146;2023-08-06T02:17:42;1752.88;;;999.90;;
68995;SDS011;56056;48.990;12.146;2023-08-06T02:20:08;1421.93;;;999.90;;
68995;SDS011;56056;48.990;12.146;2023-08-06T02:22:35;1409.55;;;999.90;;
68995;SDS011;56056;48.990;12.146;2023-08-06T02:25:00;1470.13;;;999.90;;
68995;SDS011;56056;48.990;12.146;2023-08-06T02:27:28;1512.43;;;999.90;;
68995;SDS011;56056;48.990;12.146;2023-08-06T02:29:53;1479.45;;;999.90;;
68995;SDS011;56056;48.990;12.146;2023-08-06T02:32:19;1507.07;;;999.90;;
68995;SDS011;56056;48.990;12.146;2023-08-06T02:34:45;1519.38;;;999.90;;
68995;SDS011;56056;48.990;12.146;2023-08-06T02:37:11;1652.28;;;999.90;;
68995;SDS011;56056;48.990;12.146;2023-08-06T02:39:37;1567.28;;;999.90;;
68995;SDS011;56056;48.990;12.146;2023-08-06T02:42:05;1373.07;;;999.90;;
68995;SDS011;56056;48.990;12.146;2023-08-06T02:44:33;1409.13;;;999.90;;
68995;SDS011;56056;48.990;12.146;2023-08-06T02:46:59;1315.25;;;999.90;;
68995;SDS011;56056;48.990;12.146;2023-08-06T02:49:24;1344.00;;;999.90;;
68995;SDS011;56056;48.990;12.146;2023-08-06T02:51:50;1405.78;;;999.90;;
68995;SDS011;56056;48.990;12.146;2023-08-06T02:54:17;1369.13;;;999.90;;
68995;SDS011;56056;48.990;12.146;2023-08-06T02:56:43;1419.70;;;999.90;;
68995;SDS011;56056;48.990;12.146;2023-08-06T02:59:09;1372.63;;;999.90;;
68995;SDS011;56056;48.990;12.146;2023-08-06T03:01:37;1326.72;;;999.90;;
68995;SDS011;56056;48.990;12.146;2023-08-06T03:04:03;1305.70;;;999.90;;
68995;SDS011;56056;48.990;12.146;2023-08-06T03:06:29;1304.10;;;999.90;;
68995;SDS011;56056;48.990;12.146;2023-08-06T03:08:55;1434.28;;;999.90;;
68995;SDS011;56056;48.990;12.146;2023-08-06T03:11:21;1416.90;;;999.90;;
68995;SDS011;56056;48.990;12.146;2023-08-06T03:13:47;1412.05;;;999.90;;
68995;SDS011;56056;48.990;12.146;2023-08-06T03:16:13;1397.35;;;999.90;;
68995;SDS011;56056;48.990;12.146;2023-08-06T03:18:40;1393.15;;;999.90;;
68995;SDS011;56056;48.990;12.146;2023-08-06T03:21:06;1451.00;;;999.90;;
68995;SDS011;56056;48.990;12.146;2023-08-06T03:23:32;1422.75;;;999.90;;
68995;SDS011;56056;48.990;12.146;2023-08-06T03:26:00;1398.18;;;999.90;;
68995;SDS011;56056;48.990;12.146;2023-08-06T03:28:26;1400.57;;;999.90;;
68995;SDS011;56056;48.990;12.146;2023-08-06T03:30:58;1440.60;;;999.90;;
68995;SDS011;56056;48.990;12.146;2023-08-06T03:33:25;1451.05;;;999.90;;
68995;SDS011;56056;48.990;12.146;2023-08-06T03:35:52;1524.72;;;999.90;;
68995;SDS011;56056;48.990;12.146;2023-08-06T03:38:18;1406.32;;;999.90;;
68995;SDS011;56056;48.990;12.146;2023-08-06T03:40:44;1430.53;;;999.90;;
68995;SDS011;56056;48.990;12.146;2023-08-06T03:43:11;1380.47;;;999.90;;
68995;SDS011;56056;48.990;12.146;2023-08-06T03:45:37;1380.05;;;999.90;;
68995;SDS011;56056;48.990;12.146;2023-08-06T03:48:03;1458.07;;;999.90;;
68995;SDS011;56056;48.990;12.146;2023-08-06T03:50:29;1389.57;;;999.90;;
68995;SDS011;56056;48.990;12.146;2023-08-06T03:52:56;1417.80;;;999.90;;
68995;SDS011;56056;48.990;12.146;2023-08-06T03:55:22;1410.00;;;999.90;;
68995;SDS011;56056;48.990;12.146;2023-08-06T03:57:48;1402.60;;;999.90;;
68995;SDS011;56056;48.990;12.146;2023-08-06T04:00:14;1398.30;;;999.90;;
68995;SDS011;56056;48.990;12.146;2023-08-06T04:02:40;1425.72;;;999.90;;
68995;SDS011;56056;48.990;12.146;2023-08-06T04:05:06;1378.03;;;999.90;;
68995;SDS011;56056;48.990;12.146;2023-08-06T04:07:32;1401.30;;;999.90;;
68995;SDS011;56056;48.990;12.146;2023-08-06T04:10:00;1437.80;;;999.90;;
68995;SDS011;56056;48.990;12.146;2023-08-06T04:12:28;1415.72;;;999.90;;
68995;SDS011;56056;48.990;12.146;2023-08-06T04:14:54;1458.57;;;999.90;;
68995;SDS011;56056;48.990;12.146;2023-08-06T04:17:22;1432.25;;;999.90;;
68995;SDS011;56056;48.990;12.146;2023-08-06T04:19:49;1532.10;;;999.90;;
68995;SDS011;56056;48.990;12.146;2023-08-06T04:22:17;1457.45;;;999.90;;
68995;SDS011;56056;48.990;12.146;2023-08-06T04:24:44;1381.22;;;999.90;;
68995;SDS011;56056;48.990;12.146;2023-08-06T04:27:12;1318.85;;;999.90;;
68995;SDS011;56056;48.990;12.146;2023-08-06T04:29:39;1296.20;;;999.90;;
68995;SDS011;56056;48.990;12.146;2023-08-06T04:32:06;1286.35;;;999.90;;
68995;SDS011;56056;48.990;12.146;2023-08-06T04:34:33;1297.80;;;999.90;;
68995;SDS011;56056;48.990;12.146;2023-08-06T04:37:00;1292.95;;;999.90;;
68995;SDS011;56056;48.990;12.146;2023-08-06T04:39:27;1289.80;;;999.90;;
68995;SDS011;56056;48.990;12.146;2023-08-06T04:41:52;1246.03;;;999.90;;
68995;SDS011;56056;48.990;12.146;2023-08-06T04:44:20;1298.90;;;999.90;;
68995;SDS011;56056;48.990;12.146;2023-08-06T04:46:46;1229.97;;;999.90;;
68995;SDS011;56056;48.990;12.146;2023-08-06T04:49:12;1276.82;;;999.90;;
68995;SDS011;56056;48.990;12.146;2023-08-06T04:51:38;1274.90;;;999.90;;
68995;SDS011;56056;48.990;12.146;2023-08-06T04:54:03;1252.20;;;999.90;;
68995;SDS011;56056;48.990;12.146;2023-08-06T04:56:29;1235.38;;;999.90;;
68995;SDS011;56056;48.990;12.146;2023-08-06T04:58:55;1317.60;;;999.90;;
68995;SDS011;56056;48.990;12.146;2023-08-06T05:01:23;1283.38;;;999.90;;
68995;SDS011;56056;48.990;12.146;2023-08-06T05:03:49;1263.70;;;999.90;;
68995;SDS011;56056;48.990;12.146;2023-08-06T05:06:15;1252.28;;;999.90;;
68995;SDS011;56056;48.990;12.146;2023-08-06T05:08:41;1280.72;;;999.90;;
68995;SDS011;56056;48.990;12.146;2023-08-06T05:11:07;1290.22;;;999.90;;
68995;SDS011;56056;48.990;12.146;2023-08-06T05:13:34;1336.57;;;999.90;;
68995;SDS011;56056;48.990;12.146;2023-08-06T05:15:59;1390.13;;;999.90;;
68995;SDS011;56056;48.990;12.146;2023-08-06T05:18:27;1295.05;;;999.90;;
68995;SDS011;56056;48.990;12.146;2023-08-06T05:20:53;1242.75;;;999.90;;
68995;SDS011;56056;48.990;12.146;2023-08-06T05:23:19;1336.68;;;999.90;;
68995;SDS011;56056;48.990;12.146;2023-08-06T05:25:44;1238.05;;;999.90;;
68995;SDS011;56056;48.990;12.146;2023-08-06T05:28:10;1283.75;;;999.90;;
68995;SDS011;56056;48.990;12.146;2023-08-06T05:30:38;1281.90;;;999.90;;
68995;SDS011;56056;48.990;12.146;2023-08-06T05:33:05;1235.28;;;999.90;;
68995;SDS011;56056;48.990;12.146;2023-08-06T05:35:32;1289.25;;;999.90;;
68995;SDS011;56056;48.990;12.146;2023-08-06T05:37:58;1202.15;;;999.90;;
68995;SDS011;56056;48.990;12.146;2023-08-06T05:40:24;1176.93;;;999.90;;
68995;SDS011;56056;48.990;12.146;2023-08-06T05:42:50;1274.13;;;999.90;;
68995;SDS011;56056;48.990;12.146;2023-08-06T05:45:16;1184.72;;;999.90;;
68995;SDS011;56056;48.990;12.146;2023-08-06T05:47:43;1207.82;;;999.90;;
68995;SDS011;56056;48.990;12.146;2023-08-06T05:50:09;1276.22;;;999.90;;
68995;SDS011;56056;48.990;12.146;2023-08-06T05:52:36;1233.88;;;999.90;;
68995;SDS011;56056;48.990;12.146;2023-08-06T05:55:02;1292.30;;;999.90;;
68995;SDS011;56056;48.990;12.146;2023-08-06T05:57:28;1228.18;;;999.90;;
68995;SDS011;56056;48.990;12.146;2023-08-06T05:59:54;1266.72;;;999.90;;
68995;SDS011;56056;48.990;12.146;2023-08-06T06:02:20;1221.43;;;999.90;;
68995;SDS011;56056;48.990;12.146;2023-08-06T06:04:46;1216.97;;;999.90;;
68995;SDS011;56056;48.990;12.146;2023-08-06T06:07:11;1411.68;;;999.90;;
68995;SDS011;56056;48.990;12.146;2023-08-06T06:09:38;1313.00;;;999.90;;
68995;SDS011;56056;48.990;12.146;2023-08-06T06:12:05;1266.22;;;999.90;;
68995;SDS011;56056;48.990;12.146;2023-08-06T06:14:31;1477.32;;;999.90;;
68995;SDS011;56056;48.990;12.146;2023-08-06T06:16:58;1222.50;;;999.90;;
68995;SDS011;56056;48.990;12.146;2023-08-06T06:19:25;1287.35;;;999.90;;
68995;SDS011;56056;48.990;12.146;2023-08-06T06:21:51;1276.63;;;999.90;;
68995;SDS011;56056;48.990;12.146;2023-08-06T06:24:18;1242.22;;;999.90;;
68995;SDS011;56056;48.990;12.146;2023-08-06T06:26:45;1370.68;;;999.90;;
68995;SDS011;56056;48.990;12.146;2023-08-06T06:29:11;1262.72;;;999.90;;
68995;SDS011;56056;48.990;12.146;2023-08-06T06:31:37;1244.20;;;999.90;;
68995;SDS011;56056;48.990;12.146;2023-08-06T06:34:02;1273.00;;;999.90;;
68995;SDS011;56056;48.990;12.146;2023-08-06T06:36:28;1318.78;;;999.90;;
68995;SDS011;56056;48.990;12.146;2023-08-06T06:38:54;1262.90;;;999.90;;
68995;SDS011;56056;48.990;12.146;2023-08-06T06:41:20;1476.60;;;999.90;;
68995;SDS011;56056;48.990;12.146;2023-08-06T06:43:47;1593.47;;;999.90;;
68995;SDS011;56056;48.990;12.146;2023-08-06T06:46:13;1797.15;;;999.90;;
68995;SDS011;56056;48.990;12.146;2023-08-06T06:48:39;1787.93;;;999.90;;
68995;SDS011;56056;48.990;12.146;2023-08-06T06:51:05;1707.45;;;999.90;;
68995;SDS011;56056;48.990;12.146;2023-08-06T06:53:31;1775.80;;;999.90;;
68995;SDS011;56056;48.990;12.146;2023-08-06T06:56:01;1997.95;;;999.90;;
68995;SDS011;56056;48.990;12.146;2023-08-06T06:58:29;1999.90;;;999.90;;
68995;SDS011;56056;48.990;12.146;2023-08-06T07:00:57;1852.78;;;999.90;;
68995;SDS011;56056;48.990;12.146;2023-08-06T07:03:23;1845.93;;;999.90;;
68995;SDS011;56056;48.990;12.146;2023-08-06T07:05:49;1913.53;;;999.90;;
68995;SDS011;56056;48.990;12.146;2023-08-06T07:08:15;1879.32;;;999.90;;
68995;SDS011;56056;48.990;12.146;2023-08-06T07:10:42;1942.43;;;999.90;;
68995;SDS011;56056;48.990;12.146;2023-08-06T07:13:08;1882.40;;;999.90;;
68995;SDS011;56056;48.990;12.146;2023-08-06T07:15:34;1620.88;;;999.90;;
68995;SDS011;56056;48.990;12.146;2023-08-06T07:18:01;1826.28;;;999.90;;
68995;SDS011;56056;48.990;12.146;2023-08-06T07:20:27;1640.03;;;999.90;;
68995;SDS011;56056;48.990;12.146;2023-08-06T07:22:58;1729.13;;;999.90;;
68995;SDS011;56056;48.990;12.146;2023-08-06T07:25:23;1239.90;;;999.90;;
68995;SDS011;56056;48.990;12.146;2023-08-06T07:27:49;1588.22;;;999.90;;
68995;SDS011;56056;48.990;12.146;2023-08-06T07:30:15;1526.47;;;999.90;;
68995;SDS011;56056;48.990;12.146;2023-08-06T07:32:42;1515.50;;;999.90;;
68995;SDS011;56056;48.990;12.146;2023-08-06T07:35:09;1495.70;;;999.90;;
68995;SDS011;56056;48.990;12.146;2023-08-06T07:37:37;1403.75;;;999.90;;
68995;SDS011;56056;48.990;12.146;2023-08-06T07:40:03;1322.35;;;999.90;;
68995;SDS011;56056;48.990;12.146;2023-08-06T07:42:30;1394.30;;;999.90;;
68995;SDS011;56056;48.990;12.146;2023-08-06T07:44:57;1413.45;;;999.90;;
68995;SDS011;56056;48.990;12.146;2023-08-06T07:47:23;1601.28;;;999.90;;
68995;SDS011;56056;48.990;12.146;2023-08-06T07:49:50;1814.00;;;999.90;;
68995;SDS011;56056;48.990;12.146;2023-08-06T07:52:17;1426.85;;;999.90;;
68995;SDS011;56056;48.990;12.146;2023-08-06T07:54:43;1260.82;;;999.90;;
68995;SDS011;56056;48.990;12.146;2023-08-06T07:57:09;1288.88;;;999.90;;
68995;SDS011;56056;48.990;12.146;2023-08-06T07:59:36;1385.15;;;999.90;;
68995;SDS011;56056;48.990;12.146;2023-08-06T08:02:02;1393.63;;;999.90;;
68995;SDS011;56056;48.990;12.146;2023-08-06T08:04:29;1293.13;;;999.90;;
68995;SDS011;56056;48.990;12.146;2023-08-06T08:06:55;1941.63;;;999.90;;
68995;SDS011;56056;48.990;12.146;2023-08-06T08:09:22;1999.90;;;999.90;;
68995;SDS011;56056;48.990;12.146;2023-08-06T08:11:48;1999.90;;;999.90;;
68995;SDS011;56056;48.990;12.146;2023-08-06T08:14:14;1980.07;;;999.90;;
68995;SDS011;56056;48.990;12.146;2023-08-06T08:16:39;1964.97;;;999.90;;
68995;SDS011;56056;48.990;12.146;2023-08-06T08:19:05;1737.88;;;999.90;;
68995;SDS011;56056;48.990;12.146;2023-08-06T08:21:31;1826.03;;;999.90;;
68995;SDS011;56056;48.990;12.146;2023-08-06T08:23:59;1679.30;;;999.90;;
68995;SDS011;56056;48.990;12.146;2023-08-06T08:26:27;1583.35;;;999.90;;
68995;SDS011;56056;48.990;12.146;2023-08-06T08:28:52;1704.45;;;999.90;;
68995;SDS011;56056;48.990;12.146;2023-08-06T08:31:18;1712.88;;;999.90;;
68995;SDS011;56056;48.990;12.146;2023-08-06T08:33:44;1566.85;;;999.90;;
68995;SDS011;56056;48.990;12.146;2023-08-06T08:36:10;1667.63;;;999.90;;
68995;SDS011;56056;48.990;12.146;2023-08-06T08:38:36;1524.18;;;999.90;;
68995;SDS011;56056;48.990;12.146;2023-08-06T08:41:02;1594.85;;;999.90;;
68995;SDS011;56056;48.990;12.146;2023-08-06T08:43:29;1461.55;;;999.90;;
68995;SDS011;56056;48.990;12.146;2023-08-06T08:45:56;1702.07;;;999.90;;
68995;SDS011;56056;48.990;12.146;2023-08-06T08:48:24;1971.53;;;999.90;;
68995;SDS011;56056;48.990;12.146;2023-08-06T08:50:52;1780.88;;;999.90;;
68995;SDS011;56056;48.990;12.146;2023-08-06T08:53:18;1860.47;;;999.90;;
68995;SDS011;56056;48.990;12.146;2023-08-06T08:55:46;1722.38;;;999.90;;
68995;SDS011;56056;48.990;12.146;2023-08-06T08:58:14;1645.43;;;999.90;;
68995;SDS011;56056;48.990;12.146;2023-08-06T09:00:42;1283.18;;;999.90;;
68995;SDS011;56056;48.990;12.146;2023-08-06T09:03:08;1730.40;;;999.90;;
68995;SDS011;56056;48.990;12.146;2023-08-06T09:05:35;1619.97;;;999.90;;
68995;SDS011;56056;48.990;12.146;2023-08-06T09:08:05;1415.15;;;999.90;;
68995;SDS011;56056;48.990;12.146;2023-08-06T09:10:32;1694.53;;;999.90;;
68995;SDS011;56056;48.990;12.146;2023-08-06T09:12:58;1765.88;;;999.90;;
68995;SDS011;56056;48.990;12.146;2023-08-06T09:15:26;1383.63;;;999.90;;
68995;SDS011;56056;48.990;12.146;2023-08-06T09:17:54;1350.15;;;999.90;;
68995;SDS011;56056;48.990;12.146;2023-08-06T09:20:21;1400.43;;;999.90;;
68995;SDS011;56056;48.990;12.146;2023-08-06T09:22:47;1382.15;;;999.90;;
68995;SDS011;56056;48.990;12.146;2023-08-06T09:25:14;1274.95;;;999.90;;
68995;SDS011;56056;48.990;12.146;2023-08-06T09:27:48;1271.63;;;999.90;;
68995;SDS011;56056;48.990;12.146;2023-08-06T09:30:27;1387.47;;;999.90;;
68995;SDS011;56056;48.990;12.146;2023-08-06T09:32:57;1254.93;;;999.90;;
68995;SDS011;56056;48.990;12.146;2023-08-06T09:35:23;1261.45;;;999.90;;
68995;SDS011;56056;48.990;12.146;2023-08-06T09:37:50;1284.72;;;999.90;;
68995;SDS011;56056;48.990;12.146;2023-08-06T09:40:24;1225.13;;;999.90;;
68995;SDS011;56056;48.990;12.146;2023-08-06T09:42:51;1251.63;;;999.90;;
68995;SDS011;56056;48.990;12.146;2023-08-06T09:45:17;1265.78;;;999.90;;
68995;SDS011;56056;48.990;12.146;2023-08-06T09:47:43;1509.47;;;999.90;;
68995;SDS011;56056;48.990;12.146;2023-08-06T09:50:15;1371.28;;;999.90;;
68995;SDS011;56056;48.990;12.146;2023-08-06T09:52:43;1578.38;;;999.90;;
68995;SDS011;56056;48.990;12.146;2023-08-06T09:55:10;1499.65;;;999.90;;
68995;SDS011;56056;48.990;12.146;2023-08-06T09:57:37;1663.05;;;837.10;;
68995;SDS011;56056;48.990;12.146;2023-08-06T10:00:03;1570.40;;;999.90;;
68995;SDS011;56056;48.990;12.146;2023-08-06T10:02:33;1752.57;;;999.90;;
68995;SDS011;56056;48.990;12.146;2023-08-06T10:04:59;1603.80;;;999.90;;
68995;SDS011;56056;48.990;12.146;2023-08-06T10:07:27;1720.13;;;999.90;;
68995;SDS011;56056;48.990;12.146;2023-08-06T10:09:55;1943.15;;;999.90;;
68995;SDS011;56056;48.990;12.146;2023-08-06T10:12:21;1998.07;;;999.90;;
68995;SDS011;56056;48.990;12.146;2023-08-06T10:14:50;1999.90;;;999.90;;
68995;SDS011;56056;48.990;12.146;2023-08-06T10:17:17;1999.90;;;999.90;;
68995;SDS011;56056;48.990;12.146;2023-08-06T10:19:43;1999.90;;;999.90;;
68995;SDS011;56056;48.990;12.146;2023-08-06T10:22:11;1999.90;;;999.90;;
68995;SDS011;56056;48.990;12.146;2023-08-06T10:24:49;1999.90;;;999.90;;
68995;SDS011;56056;48.990;12.146;2023-08-06T10:27:27;1999.90;;;999.90;;
68995;SDS011;56056;48.990;12.146;2023-08-06T10:32:49;1999.90;;;999.90;;
68995;SDS011;56056;48.990;12.146;2023-08-06T10:35:29;1818.20;;;999.90;;
68995;SDS011;56056;48.990;12.146;2023-08-06T10:37:59;1512.70;;;999.90;;
68995;SDS011;56056;48.990;12.146;2023-08-06T10:40:30;1867.95;;;999.90;;
68995;SDS011;56056;48.990;12.146;2023-08-06T10:42:58;1722.43;;;999.90;;
68995;SDS011;56056;48.990;12.146;2023-08-06T10:45:25;1686.85;;;999.90;;
68995;SDS011;56056;48.990;12.146;2023-08-06T10:47:54;1858.65;;;999.90;;
68995;SDS011;56056;48.990;12.146;2023-08-06T10:50:23;1999.90;;;999.90;;
68995;SDS011;56056;48.990;12.146;2023-08-06T10:52:49;1420.55;;;999.90;;
68995;SDS011;56056;48.990;12.146;2023-08-06T10:55:22;1388.90;;;999.90;;
68995;SDS011;56056;48.990;12.146;2023-08-06T10:57:51;1405.53;;;999.90;;
68995;SDS011;56056;48.990;12.146;2023-08-06T11:00:18;1351.85;;;999.90;;
68995;SDS011;56056;48.990;12.146;2023-08-06T11:02:46;1340.78;;;999.90;;
68995;SDS011;56056;48.990;12.146;2023-08-06T11:05:13;1332.25;;;999.90;;
68995;SDS011;56056;48.990;12.146;2023-08-06T11:07:39;1402.47;;;999.90;;
68995;SDS011;56056;48.990;12.146;2023-08-06T11:10:05;1999.90;;;999.90;;
68995;SDS011;56056;48.990;12.146;2023-08-06T11:12:33;1908.53;;;999.90;;
68995;SDS011;56056;48.990;12.146;2023-08-06T11:15:01;1999.90;;;999.90;;
68995;SDS011;56056;48.990;12.146;2023-08-06T11:17:31;1999.90;;;999.90;;
68995;SDS011;56056;48.990;12.146;2023-08-06T11:19:59;1572.60;;;999.90;;
68995;SDS011;56056;48.990;12.146;2023-08-06T11:22:26;1760.22;;;999.90;;
68995;SDS011;56056;48.990;12.146;2023-08-06T11:24:52;1300.22;;;999.90;;
68995;SDS011;56056;48.990;12.146;2023-08-06T11:27:19;1332.60;;;999.90;;
68995;SDS011;56056;48.990;12.146;2023-08-06T11:29:45;1436.97;;;999.90;;
68995;SDS011;56056;48.990;12.146;2023-08-06T11:32:12;1317.88;;;999.90;;
68995;SDS011;56056;48.990;12.146;2023-08-06T11:34:39;1342.97;;;999.90;;
68995;SDS011;56056;48.990;12.146;2023-08-06T11:37:06;1381.63;;;999.90;;
68995;SDS011;56056;48.990;12.146;2023-08-06T11:39:32;1367.00;;;999.90;;
68995;SDS011;56056;48.990;12.146;2023-08-06T11:41:59;1552.28;;;999.90;;
68995;SDS011;56056;48.990;12.146;2023-08-06T11:44:29;1503.85;;;999.90;;
68995;SDS011;56056;48.990;12.146;2023-08-06T11:46:59;1774.43;;;999.90;;
68995;SDS011;56056;48.990;12.146;2023-08-06T11:49:41;1396.38;;;999.90;;
68995;SDS011;56056;48.990;12.146;2023-08-06T11:52:16;1462.65;;;999.90;;
68995;SDS011;56056;48.990;12.146;2023-08-06T11:54:44;1510.55;;;999.90;;
68995;SDS011;56056;48.990;12.146;2023-08-06T11:57:11;1749.63;;;999.90;;
68995;SDS011;56056;48.990;12.146;2023-08-06T11:59:38;1958.63;;;999.90;;
68995;SDS011;56056;48.990;12.146;2023-08-06T12:02:05;1574.07;;;999.90;;
68995;SDS011;56056;48.990;12.146;2023-08-06T12:07:30;1623.05;;;999.90;;
68995;SDS011;56056;48.990;12.146;2023-08-06T12:09:57;1626.10;;;953.63;;
68995;SDS011;56056;48.990;12.146;2023-08-06T12:12:24;1897.13;;;999.90;;
68995;SDS011;56056;48.990;12.146;2023-08-06T12:14:50;1644.20;;;999.90;;
68995;SDS011;56056;48.990;12.146;2023-08-06T12:17:16;1581.82;;;999.90;;
68995;SDS011;56056;48.990;12.146;2023-08-06T12:19:43;1540.40;;;979.70;;
68995;SDS011;56056;48.990;12.146;2023-08-06T12:22:12;1464.18;;;999.90;;
68995;SDS011;56056;48.990;12.146;2023-08-06T12:24:38;1546.88;;;999.90;;
68995;SDS011;56056;48.990;12.146;2023-08-06T12:27:04;1668.70;;;999.90;;
68995;SDS011;56056;48.990;12.146;2023-08-06T12:29:30;1999.90;;;999.90;;
68995;SDS011;56056;48.990;12.146;2023-08-06T12:31:56;1810.38;;;999.90;;
68995;SDS011;56056;48.990;12.146;2023-08-06T12:34:22;1546.82;;;999.90;;
68995;SDS011;56056;48.990;12.146;2023-08-06T12:36:48;1455.15;;;999.90;;
68995;SDS011;56056;48.990;12.146;2023-08-06T12:39:15;1710.50;;;999.90;;
68995;SDS011;56056;48.990;12.146;2023-08-06T12:41:41;1800.32;;;999.90;;
68995;SDS011;56056;48.990;12.146;2023-08-06T12:44:08;1469.03;;;999.90;;
68995;SDS011;56056;48.990;12.146;2023-08-06T12:46:34;1333.53;;;912.17;;
68995;SDS011;56056;48.990;12.146;2023-08-06T12:49:00;1461.88;;;999.90;;
68995;SDS011;56056;48.990;12.146;2023-08-06T12:51:26;1585.35;;;976.63;;
68995;SDS011;56056;48.990;12.146;2023-08-06T12:53:52;1612.93;;;999.90;;
68995;SDS011;56056;48.990;12.146;2023-08-06T12:56:19;1999.90;;;999.90;;
68995;SDS011;56056;48.990;12.146;2023-08-06T12:58:45;1999.90;;;999.90;;
68995;SDS011;56056;48.990;12.146;2023-08-06T13:01:10;1999.90;;;999.90;;
68995;SDS011;56056;48.990;12.146;2023-08-06T13:03:36;1999.90;;;999.90;;
68995;SDS011;56056;48.990;12.146;2023-08-06T13:06:02;1999.90;;;999.90;;
68995;SDS011;56056;48.990;12.146;2023-08-06T13:08:28;1911.22;;;999.90;;
68995;SDS011;56056;48.990;12.146;2023-08-06T13:10:54;1999.90;;;999.90;;
68995;SDS011;56056;48.990;12.146;2023-08-06T13:13:21;1999.90;;;999.90;;
68995;SDS011;56056;48.990;12.146;2023-08-06T13:15:47;1899.47;;;999.90;;
68995;SDS011;56056;48.990;12.146;2023-08-06T13:18:13;1999.90;;;999.90;;
68995;SDS011;56056;48.990;12.146;2023-08-06T13:20:39;1999.90;;;999.90;;
68995;SDS011;56056;48.990;12.146;2023-08-06T13:23:05;1999.90;;;999.90;;
68995;SDS011;56056;48.990;12.146;2023-08-06T13:25:31;1999.90;;;999.90;;
68995;SDS011;56056;48.990;12.146;2023-08-06T13:28:01;1999.90;;;999.90;;
68995;SDS011;56056;48.990;12.146;2023-08-06T13:30:29;1999.90;;;999.90;;
68995;SDS011;56056;48.990;12.146;2023-08-06T13:32:54;1924.47;;;980.85;;
68995;SDS011;56056;48.990;12.146;2023-08-06T13:35:21;1806.07;;;924.35;;
68995;SDS011;56056;48.990;12.146;2023-08-06T13:37:47;1999.90;;;997.97;;
68995;SDS011;56056;48.990;12.146;2023-08-06T13:40:14;1999.90;;;819.75;;